Time;durP1;ratioP1;P1;durP2;ratioP2;P2;SDS_P1;SDS_P2;PMS_P1;PMS_P2;Temp;Humidity;BMP_temperature;BMP_pressure;BME280_temperature;BME280_humidity;BME280_pressure;Samples;Min_cycle;Max_cycle;Signal;HPM_P1;HPM_P2
2022/08/08 00:00:15;;;;;;;3.90;3.52;;;;;;;28.47;44.66;100776.61;1755216;81;21092;-84
2022/08/08 00:03:10;;;;;;;4.05;3.55;;;;;;;28.48;44.69;100778.20;1752983;80;21193;-84
2022/08/08 00:05:55;;;;;;;4.20;3.75;;;;;;;28.48;44.68;100777.61;1721844;81;21100;-84
2022/08/08 00:08:50;;;;;;;3.90;3.47;;;;;;;28.47;44.68;100776.02;1754667;80;21072;-84
2022/08/08 00:11:28;;;;;;;4.20;3.80;;;;;;;28.49;44.70;100781.22;1748520;81;21068;-84
2022/08/08 00:14:14;;;;;;;4.00;3.65;;;;;;;28.48;44.70;100781.00;1749550;79;21384;-84
2022/08/08 00:16:57;;;;;;;3.65;3.33;;;;;;;28.49;44.70;100770.03;1754670;81;21154;-84
2022/08/08 00:19:37;;;;;;;4.65;3.35;;;;;;;28.47;44.71;100776.02;1753983;81;21486;-84
2022/08/08 00:22:08;;;;;;;3.95;3.30;;;;;;;28.49;44.70;100782.63;1754625;81;20990;-84
2022/08/08 00:24:48;;;;;;;4.22;3.22;;;;;;;28.48;44.72;100780.41;1754561;80;21047;-84
2022/08/08 00:27:17;;;;;;;3.67;3.25;;;;;;;28.49;44.75;100782.63;1754844;81;21059;-84
2022/08/08 00:29:49;;;;;;;3.98;3.50;;;;;;;28.49;44.75;100781.22;1723295;81;21474;-84
2022/08/08 00:32:26;;;;;;;3.52;3.10;;;;;;;28.49;44.75;100786.83;1754945;81;21021;-84
2022/08/08 00:35:32;;;;;;;4.08;3.50;;;;;;;28.50;44.76;100788.45;1754447;81;21487;-84
2022/08/08 00:38:27;;;;;;;4.17;3.80;;;;;;;28.50;44.76;100785.06;1755038;81;21533;-84
2022/08/08 00:41:49;;;;;;;3.95;3.40;;;;;;;28.50;44.75;100788.45;1748156;80;21535;-84
2022/08/08 00:44:37;;;;;;;3.87;3.58;;;;;;;28.49;44.75;100779.83;1743988;82;21146;-83
2022/08/08 00:47:15;;;;;;;3.95;3.60;;;;;;;28.48;44.75;100779.02;1754049;79;21491;-83
2022/08/08 00:50:24;;;;;;;3.72;3.42;;;;;;;28.48;44.75;100780.41;1774620;80;21059;-83
2022/08/08 00:53:07;;;;;;;4.03;3.62;;;;;;;28.48;44.78;100778.20;1774834;79;21028;-84
2022/08/08 00:56:20;;;;;;;3.45;3.15;;;;;;;28.48;44.77;100772.02;1739984;80;21757;-84
2022/08/08 00:59:23;;;;;;;3.22;2.92;;;;;;;28.49;44.77;100782.63;1773930;80;21186;-83
2022/08/08 01:02:39;;;;;;;4.15;3.75;;;;;;;28.47;44.76;100785.81;1774893;80;21013;-84
2022/08/08 01:05:23;;;;;;;3.40;3.10;;;;;;;28.47;44.76;100783.02;1750919;81;22196;-83
2022/08/08 01:08:32;;;;;;;4.22;3.83;;;;;;;28.47;44.77;100780.80;1761457;80;21096;-83
2022/08/08 01:11:35;;;;;;;3.65;3.30;;;;;;;28.47;44.79;100786.40;1761048;80;21080;-83
2022/08/08 01:14:44;;;;;;;4.03;3.60;;;;;;;28.46;44.79;100793.17;1761515;81;21105;-83
2022/08/08 01:18:00;;;;;;;3.72;3.30;;;;;;;28.46;44.79;100791.77;1705334;82;21165;-83
2022/08/08 01:20:49;;;;;;;3.62;3.33;;;;;;;28.45;44.83;100794.34;1705909;82;21576;-83
2022/08/08 01:23:46;;;;;;;3.40;3.10;;;;;;;28.44;44.83;100794.93;1667571;84;21556;-83
2022/08/08 01:26:39;;;;;;;4.37;3.75;;;;;;;28.44;44.85;100797.73;1731479;82;21112;-83
2022/08/08 01:29:40;;;;;;;3.72;3.30;;;;;;;28.44;44.86;100796.92;1730873;82;21496;-84
2022/08/08 01:32:36;;;;;;;3.80;3.42;;;;;;;28.45;44.86;100798.55;1709794;82;20984;-83
2022/08/08 01:35:44;;;;;;;4.12;3.72;;;;;;;28.44;44.88;100796.33;1733330;81;21084;-82
2022/08/08 01:38:36;;;;;;;3.75;3.40;;;;;;;28.44;44.90;100802.52;1731204;81;21575;-83
2022/08/08 01:41:23;;;;;;;3.55;3.25;;;;;;;28.44;44.91;100805.31;1729325;82;21084;-84
2022/08/08 01:44:10;;;;;;;4.50;3.05;;;;;;;28.44;44.92;100802.52;1729042;82;21096;-84
2022/08/08 01:47:09;;;;;;;4.00;3.58;;;;;;;28.43;44.93;100792.52;1728888;83;21744;-84
2022/08/08 01:50:04;;;;;;;3.80;3.40;;;;;;;28.44;44.95;100796.92;1729386;83;21555;-83
2022/08/08 01:53:00;;;;;;;3.72;3.37;;;;;;;28.44;44.96;100798.31;1729178;82;21112;-84
2022/08/08 01:56:09;;;;;;;3.80;3.37;;;;;;;28.44;44.96;100799.72;1728969;82;21057;-84
2022/08/08 01:59:00;;;;;;;3.85;3.30;;;;;;;28.43;44.97;100803.10;1746108;81;20958;-84
2022/08/08 02:02:05;;;;;;;3.58;3.27;;;;;;;28.44;44.95;100818.72;1759000;81;21041;-83
2022/08/08 02:05:01;;;;;;;4.37;3.55;;;;;;;28.44;44.96;100816.51;1759351;81;20974;-84
2022/08/08 02:07:59;;;;;;;3.70;3.33;;;;;;;28.43;44.97;100824.09;1759009;81;21109;-84
2022/08/08 02:10:55;;;;;;;4.10;3.30;;;;;;;28.43;44.97;100826.89;1759317;81;21471;-84
2022/08/08 02:13:29;;;;;;;4.10;3.70;;;;;;;28.42;44.98;100828.09;1733455;81;21151;-84
2022/08/08 02:16:35;;;;;;;4.92;3.65;;;;;;;28.42;44.99;100830.89;1744543;81;21048;-84
2022/08/08 02:19:25;;;;;;;4.33;3.20;;;;;;;28.42;44.99;100828.09;1759468;81;21085;-84
2022/08/08 02:22:31;;;;;;;3.83;3.40;;;;;;;28.42;45.00;100830.89;1758421;81;21001;-83
2022/08/08 02:25:12;;;;;;;4.35;3.95;;;;;;;28.42;45.00;100831.48;1759696;81;21563;-84
2022/08/08 02:27:48;;;;;;;3.80;3.40;;;;;;;28.42;45.00;100823.08;1759494;81;21153;-83
2022/08/08 02:30:20;;;;;;;4.47;3.42;;;;;;;28.42;45.00;100830.89;1759734;81;21495;-84
2022/08/08 02:33:06;;;;;;;3.80;3.50;;;;;;;28.42;45.01;100824.48;1759702;81;22214;-84
2022/08/08 02:35:57;;;;;;;3.87;3.52;;;;;;;28.42;45.02;100829.49;1759036;81;21064;-84
2022/08/08 02:38:55;;;;;;;3.90;3.45;;;;;;;28.43;45.03;100836.69;1752938;81;21032;-83
2022/08/08 02:42:07;;;;;;;3.55;3.25;;;;;;;28.43;45.02;100838.08;1765311;80;21114;-83
2022/08/08 02:44:57;;;;;;;3.90;3.50;;;;;;;28.43;45.00;100839.48;1751491;81;21729;-84
2022/08/08 02:48:11;;;;;;;4.08;3.67;;;;;;;28.42;44.99;100839.28;1751645;80;28432;-84
2022/08/08 02:51:31;;;;;;;4.00;3.60;;;;;;;28.42;45.03;100844.89;1751445;82;21100;-84
2022/08/08 02:54:39;;;;;;;3.90;3.50;;;;;;;28.43;44.99;100845.08;1751511;80;21068;-84
2022/08/08 02:57:26;;;;;;;3.37;3.08;;;;;;;28.42;45.01;100851.06;1780835;80;21667;-83
2022/08/08 03:00:09;;;;;;;3.47;3.17;;;;;;;28.42;44.99;100856.66;1781232;80;21043;-84
2022/08/08 03:02:49;;;;;;;4.30;3.37;;;;;;;28.41;45.00;100862.03;1780881;79;21613;-84
2022/08/08 03:05:58;;;;;;;3.60;3.30;;;;;;;28.41;45.03;100866.23;1780055;80;21563;-83
2022/08/08 03:09:04;;;;;;;3.80;3.47;;;;;;;28.41;45.05;100864.83;1780953;80;21582;-84
2022/08/08 03:12:13;;;;;;;3.95;3.50;;;;;;;28.41;45.04;100861.45;1774307;80;21542;-83
2022/08/08 03:15:14;;;;;;;3.55;3.25;;;;;;;28.41;45.05;100857.84;1750062;82;21076;-83
2022/08/08 03:18:09;;;;;;;4.05;3.65;;;;;;;28.40;45.04;100861.22;1758000;80;21052;-83
2022/08/08 03:20:46;;;;;;;3.83;3.42;;;;;;;28.39;45.02;100859.59;1754781;80;21530;-83
2022/08/08 03:23:09;;;;;;;3.80;3.45;;;;;;;28.40;45.04;100870.20;1757393;80;21111;-84
2022/08/08 03:25:36;;;;;;;3.62;3.33;;;;;;;28.40;45.04;100868.80;1736708;80;21109;-84
2022/08/08 03:28:13;;;;;;;6.00;3.60;;;;;;;28.39;45.05;100863.80;1757699;80;21039;-84
2022/08/08 03:30:45;;;;;;;4.05;3.30;;;;;;;28.40;45.05;100868.80;1758170;80;21060;-83
2022/08/08 03:33:17;;;;;;;3.65;3.30;;;;;;;28.41;45.04;100870.43;1757787;80;21274;-83
2022/08/08 03:35:50;;;;;;;3.77;3.40;;;;;;;28.41;45.06;100872.64;1758193;80;21064;-84
2022/08/08 03:38:18;;;;;;;3.62;3.05;;;;;;;28.41;45.06;100871.24;1757835;80;21141;-83
2022/08/08 03:40:52;;;;;;;4.35;3.47;;;;;;;28.41;45.05;100873.23;1712030;81;21142;-83
2022/08/08 03:43:19;;;;;;;3.35;3.05;;;;;;;28.42;45.06;100872.06;1746371;80;21104;-84
2022/08/08 03:45:45;;;;;;;4.10;3.67;;;;;;;28.42;45.05;100872.87;1765923;80;21025;-84
2022/08/08 03:48:12;;;;;;;3.70;3.33;;;;;;;28.42;45.06;100877.07;1765825;79;21060;-84
2022/08/08 03:50:47;;;;;;;3.45;3.12;;;;;;;28.44;45.06;100878.08;1765772;81;21148;-84
2022/08/08 03:53:18;;;;;;;3.52;3.22;;;;;;;28.44;45.03;100880.29;1765806;81;21117;-84
2022/08/08 03:55:48;;;;;;;4.03;3.40;;;;;;;28.44;45.04;100879.48;1765622;81;21053;-83
2022/08/08 03:58:23;;;;;;;3.83;3.50;;;;;;;28.44;45.04;100878.89;1766071;81;21053;-84
2022/08/08 04:00:54;;;;;;;3.80;3.50;;;;;;;28.45;45.07;100883.91;1765738;81;21062;-84
2022/08/08 04:03:20;;;;;;;3.90;3.50;;;;;;;28.46;45.04;100888.33;1765993;81;21754;-84
2022/08/08 04:05:47;;;;;;;3.90;3.55;;;;;;;28.45;45.05;100886.11;1765685;81;21447;-85
2022/08/08 04:08:22;;;;;;;3.62;3.33;;;;;;;28.46;45.05;100889.73;1746378;81;21050;-84
2022/08/08 04:10:50;;;;;;;3.72;3.42;;;;;;;28.45;45.04;100894.52;1766050;81;21078;-84
2022/08/08 04:13:17;;;;;;;3.77;3.40;;;;;;;28.45;45.04;100887.52;1765623;81;21826;-84
2022/08/08 04:15:43;;;;;;;3.42;3.12;;;;;;;28.46;45.03;100894.73;1765941;81;21702;-84
2022/08/08 04:18:10;;;;;;;3.80;3.35;;;;;;;28.46;45.04;100889.14;1765611;81;21035;-83
2022/08/08 04:20:37;;;;;;;5.35;3.37;;;;;;;28.47;45.06;100887.16;1765490;81;21018;-83
2022/08/08 04:23:03;;;;;;;4.05;3.62;;;;;;;28.46;45.07;100885.53;1765850;81;21445;-84
2022/08/08 04:25:31;;;;;;;3.52;3.08;;;;;;;28.47;45.02;100890.77;1771697;80;21086;-84
2022/08/08 04:27:58;;;;;;;3.70;3.35;;;;;;;28.47;45.01;100890.77;1778955;80;21117;-84
2022/08/08 04:30:24;;;;;;;3.30;2.90;;;;;;;28.48;45.01;100890.16;1779392;80;21563;-84
2022/08/08 04:32:50;;;;;;;3.35;3.05;;;;;;;28.47;45.00;100889.37;1779465;80;21086;-83
2022/08/08 04:35:18;;;;;;;3.37;3.08;;;;;;;28.48;45.00;100888.75;1779020;80;21018;-84
2022/08/08 04:37:44;;;;;;;3.98;3.55;;;;;;;28.48;44.99;100894.34;1779395;79;21102;-84
2022/08/08 04:40:11;;;;;;;3.70;3.40;;;;;;;28.48;44.99;100891.55;1779330;80;21055;-82
2022/08/08 04:42:37;;;;;;;3.50;3.20;;;;;;;28.47;44.99;100893.56;1778775;80;21039;-83
2022/08/08 04:45:05;;;;;;;3.30;3.00;;;;;;;28.48;45.00;100890.16;1779205;79;20983;-84
2022/08/08 04:47:38;;;;;;;3.47;3.17;;;;;;;28.49;44.99;100897.38;1779055;80;21047;-83
2022/08/08 04:50:05;;;;;;;3.30;2.98;;;;;;;28.49;44.96;100901.58;1778894;80;21023;-84
2022/08/08 04:52:32;;;;;;;4.28;3.08;;;;;;;28.49;44.95;100903.79;1779514;80;22061;-84
2022/08/08 04:54:58;;;;;;;3.52;3.22;;;;;;;28.49;44.97;100905.77;1779123;80;21062;-84
2022/08/08 04:57:25;;;;;;;4.12;3.40;;;;;;;28.49;44.97;100909.97;1778870;80;21070;-84
2022/08/08 04:59:51;;;;;;;3.67;3.37;;;;;;;28.49;44.99;100916.38;1779194;80;21082;-84
2022/08/08 05:02:18;;;;;;;3.33;3.02;;;;;;;28.49;44.99;100913.58;1779119;80;21019;-84
2022/08/08 05:04:44;;;;;;;3.30;2.98;;;;;;;28.50;44.98;100919.41;1778903;80;21777;-85
2022/08/08 05:07:11;;;;;;;3.65;3.22;;;;;;;28.50;44.98;100925.01;1779118;80;21090;-83
2022/08/08 05:09:37;;;;;;;3.67;3.25;;;;;;;28.49;45.00;100922.56;1779314;80;21027;-83
2022/08/08 05:12:05;;;;;;;4.35;3.55;;;;;;;28.48;45.03;100920.94;1778996;80;21085;-83
2022/08/08 05:14:31;;;;;;;6.55;3.70;;;;;;;28.45;45.05;100925.30;1779250;80;21097;-83
2022/08/08 05:16:58;;;;;;;4.95;3.90;;;;;;;28.36;45.04;100923.30;1779030;80;21692;-83
2022/08/08 05:19:24;;;;;;;5.58;3.65;;;;;;;28.29;45.10;100924.56;1778881;80;21075;-84
2022/08/08 05:21:54;;;;;;;5.12;3.90;;;;;;;28.24;45.16;100925.44;1779214;80;21045;-84
2022/08/08 05:24:25;;;;;;;4.50;3.87;;;;;;;28.19;45.24;100929.33;1779211;79;21056;-83
2022/08/08 05:26:52;;;;;;;4.85;3.80;;;;;;;28.13;45.27;100931.59;1778922;80;21031;-83
2022/08/08 05:29:20;;;;;;;5.08;3.83;;;;;;;28.09;45.33;100931.30;1777686;79;21023;-84
2022/08/08 05:31:46;;;;;;;4.40;3.83;;;;;;;28.07;45.38;100936.42;1779072;80;20998;-84
2022/08/08 05:34:25;;;;;;;4.22;3.58;;;;;;;28.03;45.38;100941.95;1778964;80;21055;-84
2022/08/08 05:36:53;;;;;;;7.05;3.90;;;;;;;27.99;45.40;100941.06;1779197;79;21031;-84
2022/08/08 05:39:21;;;;;;;6.70;4.10;;;;;;;27.96;45.48;100941.80;1772269;80;21052;-84
2022/08/08 05:41:50;;;;;;;6.50;3.80;;;;;;;27.94;45.49;100933.53;1770752;80;21632;-83
2022/08/08 05:44:29;;;;;;;6.47;3.62;;;;;;;27.88;45.55;100939.20;1737809;81;21040;-84
2022/08/08 05:46:57;;;;;;;4.90;4.00;;;;;;;27.83;45.63;100943.08;1767437;81;21025;-84
2022/08/08 05:49:24;;;;;;;4.75;3.77;;;;;;;27.82;45.68;100943.44;1768411;81;21504;-83
2022/08/08 05:51:50;;;;;;;4.33;3.72;;;;;;;27.77;45.73;100944.52;1768273;80;21016;-83
2022/08/08 05:54:17;;;;;;;6.25;4.00;;;;;;;27.76;45.80;100948.48;1768028;81;21854;-84
2022/08/08 05:56:44;;;;;;;6.80;3.92;;;;;;;27.76;45.82;100949.06;1771771;79;21007;-83
2022/08/08 05:59:18;;;;;;;6.47;3.62;;;;;;;27.74;45.81;100950.03;1784360;79;21054;-83
2022/08/08 06:01:50;;;;;;;6.50;4.10;;;;;;;27.72;45.80;100953.19;1791444;79;21040;-84
2022/08/08 06:04:20;;;;;;;4.42;3.62;;;;;;;27.71;45.80;100954.34;1797424;79;21413;-84
2022/08/08 06:06:54;;;;;;;6.90;3.62;;;;;;;27.70;45.75;100959.16;1727026;83;21562;-83
2022/08/08 06:09:31;;;;;;;8.45;3.58;;;;;;;27.67;45.75;100954.84;1798056;79;21073;-84
2022/08/08 06:12:03;;;;;;;4.95;3.80;;;;;;;27.67;45.77;100964.63;1797896;79;21029;-84
2022/08/08 06:14:29;;;;;;;4.50;3.80;;;;;;;27.67;45.77;100961.84;1798019;79;21013;-84
2022/08/08 06:16:59;;;;;;;5.75;3.65;;;;;;;27.68;45.76;100964.28;1773588;79;21129;-84
2022/08/08 06:19:26;;;;;;;5.67;4.08;;;;;;;27.68;45.76;100957.88;1768137;81;21609;-84
2022/08/08 06:21:53;;;;;;;5.92;3.77;;;;;;;27.68;45.75;100964.28;1797617;79;21030;-84
2022/08/08 06:24:19;;;;;;;5.67;3.47;;;;;;;27.66;45.76;100965.25;1798306;79;21054;-84
2022/08/08 06:27:05;;;;;;;6.20;3.45;;;;;;;27.66;45.78;100964.44;1797832;79;21045;-84
2022/08/08 06:29:45;;;;;;;4.85;3.58;;;;;;;27.64;45.83;100970.38;1798161;79;21022;-85
2022/08/08 06:32:16;;;;;;;4.87;3.50;;;;;;;27.63;45.86;100963.73;1788497;79;21170;-85
2022/08/08 06:34:46;;;;;;;5.83;3.42;;;;;;;27.64;45.84;100963.97;1783881;80;21004;-84
2022/08/08 06:37:13;;;;;;;6.28;3.50;;;;;;;27.66;45.84;100965.25;1791335;79;20987;-84
2022/08/08 06:39:43;;;;;;;5.25;3.60;;;;;;;27.66;45.83;100967.23;1768479;79;21588;-85
2022/08/08 06:42:11;;;;;;;9.38;3.90;;;;;;;27.65;45.83;100957.21;1799049;79;21049;-85
2022/08/08 06:44:40;;;;;;;6.87;3.33;;;;;;;27.66;45.84;100966.64;1797387;79;21177;-84
2022/08/08 06:47:06;;;;;;;5.08;3.90;;;;;;;27.66;45.93;100963.85;1797089;79;21490;-84
2022/08/08 06:49:33;;;;;;;7.62;3.98;;;;;;;27.66;45.98;100965.83;1797507;79;20974;-84
2022/08/08 06:52:00;;;;;;;6.05;3.60;;;;;;;27.66;45.95;100963.85;1797494;79;21504;-84
2022/08/08 06:54:26;;;;;;;5.15;3.45;;;;;;;27.66;45.96;100959.66;1797169;79;21061;-84
2022/08/08 06:56:53;;;;;;;4.92;3.62;;;;;;;27.69;45.96;100962.30;1803767;79;21099;-84
2022/08/08 06:59:20;;;;;;;5.22;3.80;;;;;;;27.69;45.93;100960.33;1797211;79;21006;-84
2022/08/08 07:01:51;;;;;;;4.28;3.30;;;;;;;27.70;45.92;100956.95;1797280;79;21025;-84
2022/08/08 07:04:54;;;;;;;6.30;3.12;;;;;;;27.69;45.89;100967.31;1779706;79;21048;-83
2022/08/08 07:07:59;;;;;;;6.45;3.33;;;;;;;27.70;45.87;100967.55;1731331;81;21048;-85
2022/08/08 07:10:25;;;;;;;4.12;3.52;;;;;;;27.70;45.86;100969.52;1764058;80;21987;-84
2022/08/08 07:13:06;;;;;;;3.22;2.87;;;;;;;27.70;45.81;100963.94;1764844;81;21029;-84
2022/08/08 07:16:02;;;;;;;6.62;3.17;;;;;;;27.71;45.79;100962.73;1771788;79;20990;-85
2022/08/08 07:18:57;;;;;;;4.30;3.20;;;;;;;27.73;45.80;100961.80;1778587;80;20967;-84
2022/08/08 07:21:27;;;;;;;6.22;3.30;;;;;;;27.77;45.78;100960.48;1770618;79;21046;-84
2022/08/08 07:24:01;;;;;;;5.47;3.08;;;;;;;27.78;45.76;100958.73;1754489;81;21174;-84
2022/08/08 07:26:32;;;;;;;5.37;3.20;;;;;;;27.79;45.72;100961.77;1745586;79;21017;-84
2022/08/08 07:28:59;;;;;;;11.08;3.10;;;;;;;27.79;45.67;100958.97;1764378;80;21578;-84
2022/08/08 07:31:25;;;;;;;5.50;3.35;;;;;;;27.79;45.63;100967.35;1780596;79;20990;-83
2022/08/08 07:33:52;;;;;;;4.75;3.30;;;;;;;27.80;45.55;100967.55;1771332;79;21033;-83
2022/08/08 07:36:19;;;;;;;3.52;3.05;;;;;;;27.78;45.51;100960.72;1778102;79;21658;-83
2022/08/08 07:38:47;;;;;;;5.20;3.33;;;;;;;27.78;45.51;100957.92;1762172;78;21090;-83
2022/08/08 07:41:16;;;;;;;3.98;3.37;;;;;;;27.80;45.54;100962.55;1780890;79;21609;-84
2022/08/08 07:43:43;;;;;;;5.00;3.10;;;;;;;27.81;45.54;100964.17;1732484;80;21005;-83
2022/08/08 07:46:10;;;;;;;6.45;3.20;;;;;;;27.82;45.48;100966.62;1782626;79;21028;-83
2022/08/08 07:48:36;;;;;;;4.53;3.05;;;;;;;27.83;45.50;100952.88;1780152;79;21121;-83
2022/08/08 07:51:03;;;;;;;6.97;3.27;;;;;;;27.84;45.52;100958.66;1754451;79;21070;-83
2022/08/08 07:53:43;;;;;;;5.55;3.47;;;;;;;27.87;45.52;100963.55;1752253;81;21028;-83
2022/08/08 07:56:12;;;;;;;4.85;3.40;;;;;;;27.90;45.52;100962.00;1751855;80;21067;-84
2022/08/08 07:58:41;;;;;;;4.53;3.47;;;;;;;27.87;45.47;100955.74;1716542;82;22188;-84
2022/08/08 08:01:12;;;;;;;4.12;3.15;;;;;;;27.93;45.44;100966.27;1754575;81;21558;-83
2022/08/08 08:04:04;;;;;;;7.58;3.25;;;;;;;27.94;45.42;100959.51;1790996;79;21587;-83
2022/08/08 08:06:31;;;;;;;3.72;2.83;;;;;;;27.95;45.40;100958.34;1794948;79;21566;-84
2022/08/08 08:09:06;;;;;;;3.75;2.90;;;;;;;27.96;45.37;100958.58;1687214;82;21023;-83
2022/08/08 08:11:34;;;;;;;6.40;3.20;;;;;;;27.98;45.39;100959.00;1779437;79;21549;-84
2022/08/08 08:14:06;;;;;;;6.28;3.08;;;;;;;27.97;45.40;100960.17;1745231;81;21164;-84
2022/08/08 08:16:39;;;;;;;5.12;3.50;;;;;;;27.98;45.45;100960.41;1700171;82;21049;-83
2022/08/08 08:19:08;;;;;;;5.65;3.40;;;;;;;28.00;45.43;100959.47;1771229;80;21015;-85
2022/08/08 08:21:41;;;;;;;3.63;3.13;;;;;;;28.01;45.39;100959.66;1724597;82;21074;-85
2022/08/08 08:24:08;;;;;;;5.83;3.17;;;;;;;28.02;45.42;100966.89;1735520;81;21098;-84
2022/08/08 08:26:34;;;;;;;4.78;3.33;;;;;;;28.03;45.42;100962.92;1732588;81;21692;-84
2022/08/08 08:29:01;;;;;;;4.03;3.17;;;;;;;28.04;45.38;100963.16;1732244;81;21020;-84
2022/08/08 08:31:27;;;;;;;4.17;2.98;;;;;;;28.07;45.31;100959.62;1728277;79;21585;-84
2022/08/08 08:33:54;;;;;;;4.53;3.00;;;;;;;28.07;45.28;100956.00;1788254;80;21546;-84
2022/08/08 08:36:20;;;;;;;10.15;3.37;;;;;;;28.09;45.27;100955.87;1698949;83;21080;-84
2022/08/08 08:38:47;;;;;;;6.33;3.08;;;;;;;28.10;45.23;100958.91;1686630;82;21189;-84
2022/08/08 08:41:14;;;;;;;4.65;2.92;;;;;;;28.12;45.21;100955.76;1740262;82;20997;-84
2022/08/08 08:43:41;;;;;;;4.08;3.12;;;;;;;28.14;45.19;100954.79;1723169;81;21140;-84
2022/08/08 08:46:10;;;;;;;5.22;3.45;;;;;;;28.15;45.12;100955.83;1725343;82;21117;-84
2022/08/08 08:48:36;;;;;;;5.00;3.52;;;;;;;28.14;45.05;100953.39;1707752;82;21138;-85
2022/08/08 08:51:07;;;;;;;4.85;3.40;;;;;;;28.16;45.04;100948.25;1722860;82;21111;-85
2022/08/08 08:53:50;;;;;;;6.10;3.17;;;;;;;28.18;45.00;100950.70;1724500;82;21066;-85
2022/08/08 08:56:18;;;;;;;6.33;3.50;;;;;;;28.19;45.00;100949.50;1701566;83;21487;-85
2022/08/08 08:58:47;;;;;;;4.12;3.62;;;;;;;28.20;44.96;100948.33;1776853;79;21609;-84
2022/08/08 09:01:18;;;;;;;4.65;3.30;;;;;;;28.21;44.95;100947.16;1775824;80;21131;-84
2022/08/08 09:03:47;;;;;;;6.28;3.52;;;;;;;28.22;44.95;100941.18;1771491;79;21135;-85
2022/08/08 09:06:26;;;;;;;4.08;3.20;;;;;;;28.23;44.94;100943.39;1763943;80;21590;-84
2022/08/08 09:09:10;;;;;;;5.20;3.45;;;;;;;28.23;44.90;100940.01;1766502;78;21481;-84
2022/08/08 09:11:36;;;;;;;4.42;3.27;;;;;;;28.25;44.86;100942.45;1757237;80;21103;-85
2022/08/08 09:14:03;;;;;;;4.22;3.22;;;;;;;28.26;44.82;100935.69;1761620;80;21056;-85
2022/08/08 09:16:30;;;;;;;4.05;2.92;;;;;;;28.28;44.85;100925.73;1772500;80;21089;-85
2022/08/08 09:18:57;;;;;;;6.95;3.35;;;;;;;28.32;44.85;100928.60;1758144;80;21052;-85
2022/08/08 09:21:23;;;;;;;5.30;3.27;;;;;;;28.33;44.85;100929.64;1759705;80;21565;-85
2022/08/08 09:23:50;;;;;;;6.87;3.27;;;;;;;28.34;44.82;100924.28;1779957;78;21075;-84
2022/08/08 09:26:46;;;;;;;6.37;3.25;;;;;;;28.35;44.71;100922.27;1766891;79;21107;-84
2022/08/08 09:29:17;;;;;;;3.85;3.42;;;;;;;28.35;44.70;100918.06;1768557;80;21589;-85
2022/08/08 09:32:06;;;;;;;6.50;3.30;;;;;;;28.36;44.65;100918.29;1764903;79;21063;-84
2022/08/08 09:34:34;;;;;;;6.50;4.37;;;;;;;28.38;44.61;100915.95;1769787;79;21083;-85
2022/08/08 09:37:10;;;;;;;5.87;3.50;;;;;;;28.39;44.64;100904.38;1777821;80;21087;-85
2022/08/08 09:39:43;;;;;;;5.10;3.33;;;;;;;28.40;44.64;100903.78;1762030;78;21098;-85
2022/08/08 09:42:14;;;;;;;6.22;3.67;;;;;;;28.41;44.57;100906.81;1780349;78;21647;-85
2022/08/08 09:45:27;;;;;;;7.22;3.72;;;;;;;28.41;44.53;100900.63;1753840;80;21126;-84
2022/08/08 09:47:54;;;;;;;5.78;3.37;;;;;;;28.43;44.43;100903.06;1738509;81;21583;-85
2022/08/08 09:50:29;;;;;;;6.70;3.25;;;;;;;28.43;44.37;100898.25;1743903;81;21072;-85
2022/08/08 09:52:53;;;;;;;5.15;3.62;;;;;;;28.44;44.40;100897.67;1740690;80;21104;-84
2022/08/08 09:55:21;;;;;;;3.65;3.20;;;;;;;28.45;44.38;100891.71;1747881;81;22281;-84
2022/08/08 09:57:49;;;;;;;8.05;3.30;;;;;;;28.46;44.37;100888.33;1742384;81;21033;-84
2022/08/08 10:00:21;;;;;;;5.53;3.52;;;;;;;28.47;44.34;100894.16;1743241;81;21091;-84
2022/08/08 10:02:50;;;;;;;5.33;3.42;;;;;;;28.48;44.33;100890.16;1759928;80;21446;-84
2022/08/08 10:05:18;;;;;;;4.95;3.65;;;;;;;28.49;44.31;100886.18;1706451;82;20975;-83
2022/08/08 10:07:55;;;;;;;5.70;3.10;;;;;;;28.50;44.29;100892.82;1730304;81;21109;-84
2022/08/08 10:10:41;;;;;;;4.08;3.20;;;;;;;28.52;44.19;100889.05;1729683;81;21496;-84
2022/08/08 10:13:23;;;;;;;3.50;3.20;;;;;;;28.53;44.13;100881.46;1731426;81;21017;-84
2022/08/08 10:15:54;;;;;;;3.67;3.35;;;;;;;28.53;44.09;100875.86;1731963;81;21039;-84
2022/08/08 10:18:32;;;;;;;6.35;3.33;;;;;;;28.55;44.04;100872.94;1748233;80;21129;-84
2022/08/08 10:21:08;;;;;;;5.95;2.95;;;;;;;28.55;44.00;100869.32;1759087;79;21827;-84
2022/08/08 10:23:42;;;;;;;4.97;3.67;;;;;;;28.57;43.96;100864.14;1772980;80;21066;-84
2022/08/08 10:26:24;;;;;;;5.12;3.17;;;;;;;28.58;43.90;100854.58;1773518;80;21048;-84
2022/08/08 10:29:04;;;;;;;5.20;3.50;;;;;;;28.59;43.87;100857.02;1773351;80;21040;-84
2022/08/08 10:34:19;;;;;;;5.40;3.25;;;;;;;28.60;43.80;100841.81;1766529;79;22003;-84
2022/08/08 10:36:45;;;;;;;4.83;3.08;;;;;;;28.61;43.75;100837.84;1766857;79;21007;-83
2022/08/08 10:39:18;;;;;;;7.78;3.00;;;;;;;28.61;43.74;100833.64;1767059;79;21051;-83
2022/08/08 10:41:49;;;;;;;4.10;3.20;;;;;;;28.64;43.68;100831.30;1743395;78;21045;-83
2022/08/08 10:44:35;;;;;;;6.28;3.45;;;;;;;28.65;43.60;100832.89;1786024;79;21412;-84
2022/08/08 10:47:12;;;;;;;9.08;3.05;;;;;;;28.66;43.52;100829.73;1801717;79;21174;-83
2022/08/08 10:49:42;;;;;;;4.83;3.20;;;;;;;28.66;43.48;100832.53;1742347;80;21127;-83
2022/08/08 10:52:09;;;;;;;4.20;3.30;;;;;;;28.68;43.49;100819.56;1711817;81;21107;-83
2022/08/08 10:54:39;;;;;;;4.80;3.08;;;;;;;28.70;43.51;100821.42;1757812;81;21064;-84
2022/08/08 10:57:06;;;;;;;5.60;3.40;;;;;;;28.70;43.53;100813.02;1758218;81;21635;-83
2022/08/08 10:59:33;;;;;;;5.20;3.33;;;;;;;28.71;43.56;100809.05;1758044;81;21145;-83
2022/08/08 11:01:59;;;;;;;5.15;3.25;;;;;;;28.73;43.51;100804.68;1758225;81;22221;-83
2022/08/08 11:04:26;;;;;;;4.15;2.85;;;;;;;28.74;43.43;100809.69;1757469;81;21049;-84
2022/08/08 11:07:01;;;;;;;3.50;2.70;;;;;;;28.76;43.36;100808.73;1754086;81;21064;-85
2022/08/08 11:09:28;;;;;;;3.60;3.12;;;;;;;28.76;43.48;100803.95;1756776;81;21116;-84
2022/08/08 11:11:56;;;;;;;3.60;3.10;;;;;;;28.78;43.62;100804.96;1757973;81;21098;-84
2022/08/08 11:14:23;;;;;;;3.40;2.58;;;;;;;28.78;43.73;100800.76;1742739;81;21069;-84
2022/08/08 11:16:49;;;;;;;7.37;3.67;;;;;;;28.79;43.83;100802.38;1733260;81;21515;-84
2022/08/08 11:19:16;;;;;;;3.52;2.77;;;;;;;28.79;43.86;100799.00;1727502;83;21123;-84
2022/08/08 11:21:53;;;;;;;3.72;2.90;;;;;;;28.81;43.97;100795.25;1727671;83;21088;-84
2022/08/08 11:24:17;;;;;;;3.15;2.85;;;;;;;28.80;43.95;100790.82;1727609;82;21444;-84
2022/08/08 11:26:44;;;;;;;3.62;2.83;;;;;;;28.80;43.97;100787.21;1727342;81;21459;-84
2022/08/08 11:29:16;;;;;;;3.35;2.92;;;;;;;28.81;44.03;100792.45;1727255;83;21077;-84
2022/08/08 11:31:49;;;;;;;3.60;2.83;;;;;;;28.80;44.09;100786.63;1727515;83;21053;-84
2022/08/08 11:34:16;;;;;;;3.52;2.80;;;;;;;28.81;44.10;100784.05;1727220;82;22209;-85
2022/08/08 11:36:42;;;;;;;3.10;2.50;;;;;;;28.81;44.15;100785.45;1727413;82;21155;-84
2022/08/08 11:39:10;;;;;;;3.20;2.90;;;;;;;28.82;44.19;100785.64;1727507;83;21045;-84
2022/08/08 11:41:36;;;;;;;3.27;2.90;;;;;;;28.82;44.04;100784.23;1708827;83;21107;-85
2022/08/08 11:44:04;;;;;;;3.60;3.12;;;;;;;28.84;43.83;100780.48;1731441;81;21574;-85
2022/08/08 11:46:36;;;;;;;4.47;3.05;;;;;;;28.85;43.80;100779.91;1737167;81;21049;-85
2022/08/08 11:49:11;;;;;;;5.90;3.27;;;;;;;28.85;43.83;100782.11;1776885;80;21269;-85
2022/08/08 11:51:38;;;;;;;3.37;2.85;;;;;;;28.85;43.71;100777.91;1750443;80;21524;-84
2022/08/08 11:54:06;;;;;;;3.25;2.95;;;;;;;28.86;43.75;100776.70;1777166;80;21093;-85
2022/08/08 11:56:39;;;;;;;3.15;2.85;;;;;;;28.86;43.79;100773.91;1777038;80;20997;-84
2022/08/08 11:59:08;;;;;;;6.42;2.98;;;;;;;28.86;43.81;100775.89;1777397;80;21080;-84
2022/08/08 12:01:35;;;;;;;2.87;2.50;;;;;;;28.85;43.74;100768.11;1776214;80;21695;-84
2022/08/08 12:04:02;;;;;;;4.35;3.08;;;;;;;28.84;43.82;100766.48;1791322;79;21507;-84
2022/08/08 12:06:28;;;;;;;4.25;2.65;;;;;;;28.85;43.77;100766.71;1809645;78;21573;-84
2022/08/08 12:09:08;;;;;;;3.95;3.00;;;;;;;28.85;43.77;100754.70;1809819;79;22018;-85